Advance, North Carolina
Current Conditions -  °F | °C
As of 10:35 AM on Monday 22 Dec 2014 (Local Time) from KEXX Reporting Station
Haze Haze  
Wind Chill: 36°   Ceiling: 600
Heat Index: 36°   Visibility: 1.7mi
Dew Point: 35°   Wind: 0mph
Humidity: 96%   Direction: NA
Pressure: 30.16"   Gusts: NA
Location:  35.95°N, 80.41°W
Report Text: KEXX 221535Z AUTO 00000KT 1 3/4SM BR OVC006 02/02 A3016 RMK AO2 T00210015
Loading
Personal Weather Stations






























Interactive Weather Map New forecast layout! Learn more

10-Day Weather Forecast

Advertisements
Track Severe Weather on mobile